sensor_id;sensor_type;location;lat;lon;timestamp;P1;durP1;ratioP1;P2;durP2;ratioP2
1140;SDS011;559;48.628;8.924;2023-05-07T00:00:26;180.40;;;172.20;;
1140;SDS011;559;48.628;8.924;2023-05-07T00:02:52;182.70;;;174.50;;
1140;SDS011;559;48.628;8.924;2023-05-07T00:05:19;187.32;;;178.80;;
1140;SDS011;559;48.628;8.924;2023-05-07T00:07:46;189.02;;;180.02;;
1140;SDS011;559;48.628;8.924;2023-05-07T00:10:13;189.40;;;180.50;;
1140;SDS011;559;48.628;8.924;2023-05-07T00:12:39;194.43;;;185.73;;
1140;SDS011;559;48.628;8.924;2023-05-07T00:15:07;209.52;;;200.18;;
1140;SDS011;559;48.628;8.924;2023-05-07T00:17:35;215.50;;;205.75;;
1140;SDS011;559;48.628;8.924;2023-05-07T00:20:02;216.95;;;206.73;;
1140;SDS011;559;48.628;8.924;2023-05-07T00:22:30;207.43;;;196.93;;
1140;SDS011;559;48.628;8.924;2023-05-07T00:24:57;204.63;;;194.52;;
1140;SDS011;559;48.628;8.924;2023-05-07T00:27:24;204.98;;;194.88;;
1140;SDS011;559;48.628;8.924;2023-05-07T00:29:51;206.93;;;196.85;;
1140;SDS011;559;48.628;8.924;2023-05-07T00:32:17;198.98;;;189.10;;
1140;SDS011;559;48.628;8.924;2023-05-07T00:34:45;201.45;;;191.57;;
1140;SDS011;559;48.628;8.924;2023-05-07T00:37:12;183.93;;;174.90;;
1140;SDS011;559;48.628;8.924;2023-05-07T00:39:38;201.32;;;191.63;;
1140;SDS011;559;48.628;8.924;2023-05-07T00:42:05;189.25;;;179.95;;
1140;SDS011;559;48.628;8.924;2023-05-07T00:44:32;194.85;;;185.43;;
1140;SDS011;559;48.628;8.924;2023-05-07T00:46:58;191.35;;;182.25;;
1140;SDS011;559;48.628;8.924;2023-05-07T00:49:30;192.85;;;183.55;;
1140;SDS011;559;48.628;8.924;2023-05-07T00:52:04;184.20;;;175.25;;
1140;SDS011;559;48.628;8.924;2023-05-07T00:54:31;184.35;;;175.55;;
1140;SDS011;559;48.628;8.924;2023-05-07T00:56:58;187.18;;;178.05;;
1140;SDS011;559;48.628;8.924;2023-05-07T00:59:25;188.05;;;179.02;;
1140;SDS011;559;48.628;8.924;2023-05-07T01:01:52;187.30;;;178.50;;
1140;SDS011;559;48.628;8.924;2023-05-07T01:04:18;190.00;;;181.25;;
1140;SDS011;559;48.628;8.924;2023-05-07T01:06:45;205.05;;;195.52;;
1140;SDS011;559;48.628;8.924;2023-05-07T01:09:13;204.50;;;194.82;;
1140;SDS011;559;48.628;8.924;2023-05-07T01:11:40;204.90;;;195.30;;
1140;SDS011;559;48.628;8.924;2023-05-07T01:14:07;200.98;;;191.65;;
1140;SDS011;559;48.628;8.924;2023-05-07T01:16:35;203.88;;;194.35;;
1140;SDS011;559;48.628;8.924;2023-05-07T01:19:02;188.15;;;179.25;;
1140;SDS011;559;48.628;8.924;2023-05-07T01:21:29;187.32;;;178.18;;
1140;SDS011;559;48.628;8.924;2023-05-07T01:24:00;187.40;;;178.30;;
1140;SDS011;559;48.628;8.924;2023-05-07T01:26:27;189.63;;;180.85;;
1140;SDS011;559;48.628;8.924;2023-05-07T01:28:53;200.38;;;190.98;;
1140;SDS011;559;48.628;8.924;2023-05-07T01:31:20;209.18;;;199.60;;
1140;SDS011;559;48.628;8.924;2023-05-07T01:33:46;213.15;;;203.07;;
1140;SDS011;559;48.628;8.924;2023-05-07T01:36:14;216.57;;;206.40;;
1140;SDS011;559;48.628;8.924;2023-05-07T01:38:42;218.70;;;208.43;;
1140;SDS011;559;48.628;8.924;2023-05-07T01:41:10;218.18;;;207.43;;
1140;SDS011;559;48.628;8.924;2023-05-07T01:43:38;216.63;;;206.15;;
1140;SDS011;559;48.628;8.924;2023-05-07T01:46:05;209.25;;;199.23;;
1140;SDS011;559;48.628;8.924;2023-05-07T01:48:32;198.35;;;188.73;;
1140;SDS011;559;48.628;8.924;2023-05-07T01:50:59;209.43;;;199.02;;
1140;SDS011;559;48.628;8.924;2023-05-07T01:53:26;210.43;;;199.85;;
1140;SDS011;559;48.628;8.924;2023-05-07T01:55:53;203.65;;;193.85;;
1140;SDS011;559;48.628;8.924;2023-05-07T01:58:21;202.00;;;192.10;;
1140;SDS011;559;48.628;8.924;2023-05-07T02:00:47;201.25;;;191.48;;
1140;SDS011;559;48.628;8.924;2023-05-07T02:03:14;202.05;;;191.95;;
1140;SDS011;559;48.628;8.924;2023-05-07T02:05:40;211.18;;;200.88;;
1140;SDS011;559;48.628;8.924;2023-05-07T02:08:07;221.38;;;210.48;;
1140;SDS011;559;48.628;8.924;2023-05-07T02:10:33;220.38;;;209.27;;
1140;SDS011;559;48.628;8.924;2023-05-07T02:13:10;223.82;;;212.75;;
1140;SDS011;559;48.628;8.924;2023-05-07T02:15:38;219.57;;;208.68;;
1140;SDS011;559;48.628;8.924;2023-05-07T02:18:05;205.10;;;194.85;;
1140;SDS011;559;48.628;8.924;2023-05-07T02:20:35;212.57;;;202.07;;
1140;SDS011;559;48.628;8.924;2023-05-07T02:23:01;211.68;;;200.95;;
1140;SDS011;559;48.628;8.924;2023-05-07T02:25:28;214.27;;;203.57;;
1140;SDS011;559;48.628;8.924;2023-05-07T02:27:55;215.55;;;205.15;;
1140;SDS011;559;48.628;8.924;2023-05-07T02:30:21;208.18;;;198.18;;
1140;SDS011;559;48.628;8.924;2023-05-07T02:32:50;213.70;;;203.68;;
1140;SDS011;559;48.628;8.924;2023-05-07T02:35:16;216.48;;;206.48;;
1140;SDS011;559;48.628;8.924;2023-05-07T02:37:43;207.38;;;197.68;;
1140;SDS011;559;48.628;8.924;2023-05-07T02:40:10;204.60;;;194.60;;
1140;SDS011;559;48.628;8.924;2023-05-07T02:42:37;202.10;;;192.63;;
1140;SDS011;559;48.628;8.924;2023-05-07T02:45:04;205.80;;;196.18;;
1140;SDS011;559;48.628;8.924;2023-05-07T02:47:31;207.80;;;198.00;;
1140;SDS011;559;48.628;8.924;2023-05-07T02:49:59;207.70;;;197.80;;
1140;SDS011;559;48.628;8.924;2023-05-07T02:52:26;203.25;;;193.65;;
1140;SDS011;559;48.628;8.924;2023-05-07T02:54:52;197.57;;;188.10;;
1140;SDS011;559;48.628;8.924;2023-05-07T02:57:19;201.00;;;191.30;;
1140;SDS011;559;48.628;8.924;2023-05-07T02:59:45;201.30;;;191.75;;
1140;SDS011;559;48.628;8.924;2023-05-07T03:02:12;208.40;;;198.30;;
1140;SDS011;559;48.628;8.924;2023-05-07T03:04:39;210.02;;;200.23;;
1140;SDS011;559;48.628;8.924;2023-05-07T03:07:07;199.60;;;190.00;;
1140;SDS011;559;48.628;8.924;2023-05-07T03:09:33;191.93;;;182.82;;
1140;SDS011;559;48.628;8.924;2023-05-07T03:12:00;199.60;;;190.30;;
1140;SDS011;559;48.628;8.924;2023-05-07T03:14:27;214.52;;;204.73;;
1140;SDS011;559;48.628;8.924;2023-05-07T03:16:53;205.30;;;195.85;;
1140;SDS011;559;48.628;8.924;2023-05-07T03:19:20;199.75;;;190.15;;
1140;SDS011;559;48.628;8.924;2023-05-07T03:21:47;203.38;;;193.48;;
1140;SDS011;559;48.628;8.924;2023-05-07T03:24:14;194.68;;;185.52;;
1140;SDS011;559;48.628;8.924;2023-05-07T03:26:41;212.07;;;202.18;;
1140;SDS011;559;48.628;8.924;2023-05-07T03:29:07;197.93;;;188.75;;
1140;SDS011;559;48.628;8.924;2023-05-07T03:31:34;198.93;;;189.63;;
1140;SDS011;559;48.628;8.924;2023-05-07T03:34:00;200.40;;;190.85;;
1140;SDS011;559;48.628;8.924;2023-05-07T03:36:27;231.73;;;220.18;;
1140;SDS011;559;48.628;8.924;2023-05-07T03:38:53;227.80;;;217.07;;
1140;SDS011;559;48.628;8.924;2023-05-07T03:41:21;216.43;;;206.02;;
1140;SDS011;559;48.628;8.924;2023-05-07T03:43:48;212.90;;;202.90;;
1140;SDS011;559;48.628;8.924;2023-05-07T03:46:14;201.15;;;191.65;;
1140;SDS011;559;48.628;8.924;2023-05-07T03:48:41;199.45;;;189.50;;
1140;SDS011;559;48.628;8.924;2023-05-07T03:51:07;196.18;;;186.57;;
1140;SDS011;559;48.628;8.924;2023-05-07T03:53:34;195.45;;;186.13;;
1140;SDS011;559;48.628;8.924;2023-05-07T03:56:00;196.13;;;186.73;;
1140;SDS011;559;48.628;8.924;2023-05-07T03:58:28;196.68;;;187.38;;
1140;SDS011;559;48.628;8.924;2023-05-07T04:00:55;190.65;;;181.52;;
1140;SDS011;559;48.628;8.924;2023-05-07T04:03:21;194.77;;;185.77;;
1140;SDS011;559;48.628;8.924;2023-05-07T04:05:48;194.65;;;185.73;;
1140;SDS011;559;48.628;8.924;2023-05-07T04:08:14;196.50;;;187.60;;
1140;SDS011;559;48.628;8.924;2023-05-07T04:10:41;196.60;;;187.40;;
1140;SDS011;559;48.628;8.924;2023-05-07T04:13:07;215.95;;;206.20;;
1140;SDS011;559;48.628;8.924;2023-05-07T04:15:36;220.23;;;210.13;;
1140;SDS011;559;48.628;8.924;2023-05-07T04:18:02;211.43;;;201.82;;
1140;SDS011;559;48.628;8.924;2023-05-07T04:20:29;214.55;;;204.80;;
1140;SDS011;559;48.628;8.924;2023-05-07T04:22:56;204.27;;;195.02;;
1140;SDS011;559;48.628;8.924;2023-05-07T04:25:22;190.18;;;180.88;;
1140;SDS011;559;48.628;8.924;2023-05-07T04:27:51;202.02;;;192.32;;
1140;SDS011;559;48.628;8.924;2023-05-07T04:30:18;195.50;;;186.80;;
1140;SDS011;559;48.628;8.924;2023-05-07T04:32:46;210.80;;;201.30;;
1140;SDS011;559;48.628;8.924;2023-05-07T04:35:13;218.30;;;208.38;;
1140;SDS011;559;48.628;8.924;2023-05-07T04:37:39;217.75;;;207.75;;
1140;SDS011;559;48.628;8.924;2023-05-07T04:40:06;225.20;;;214.80;;
1140;SDS011;559;48.628;8.924;2023-05-07T04:42:33;226.02;;;215.40;;
1140;SDS011;559;48.628;8.924;2023-05-07T04:45:00;230.80;;;219.85;;
1140;SDS011;559;48.628;8.924;2023-05-07T04:47:28;234.55;;;223.73;;
1140;SDS011;559;48.628;8.924;2023-05-07T04:49:56;232.23;;;221.45;;
1140;SDS011;559;48.628;8.924;2023-05-07T04:52:23;214.88;;;204.68;;
1140;SDS011;559;48.628;8.924;2023-05-07T04:54:50;216.90;;;206.60;;
1140;SDS011;559;48.628;8.924;2023-05-07T04:57:17;215.75;;;205.15;;
1140;SDS011;559;48.628;8.924;2023-05-07T04:59:43;211.45;;;201.25;;
1140;SDS011;559;48.628;8.924;2023-05-07T05:02:10;209.02;;;198.57;;
1140;SDS011;559;48.628;8.924;2023-05-07T05:04:36;203.77;;;193.75;;
1140;SDS011;559;48.628;8.924;2023-05-07T05:07:04;193.95;;;184.35;;
1140;SDS011;559;48.628;8.924;2023-05-07T05:09:30;195.68;;;186.07;;
1140;SDS011;559;48.628;8.924;2023-05-07T05:11:57;194.10;;;184.65;;
1140;SDS011;559;48.628;8.924;2023-05-07T05:14:23;184.05;;;175.10;;
1140;SDS011;559;48.628;8.924;2023-05-07T05:16:50;177.52;;;168.82;;
1140;SDS011;559;48.628;8.924;2023-05-07T05:19:16;174.80;;;166.57;;
1140;SDS011;559;48.628;8.924;2023-05-07T05:21:43;194.60;;;185.75;;
1140;SDS011;559;48.628;8.924;2023-05-07T05:24:11;202.10;;;193.00;;
1140;SDS011;559;48.628;8.924;2023-05-07T05:26:37;195.90;;;186.60;;
1140;SDS011;559;48.628;8.924;2023-05-07T05:29:04;197.23;;;188.02;;
1140;SDS011;559;48.628;8.924;2023-05-07T05:31:31;186.98;;;177.38;;
1140;SDS011;559;48.628;8.924;2023-05-07T05:33:58;181.48;;;172.73;;
1140;SDS011;559;48.628;8.924;2023-05-07T05:36:25;175.18;;;166.80;;
1140;SDS011;559;48.628;8.924;2023-05-07T05:38:51;183.13;;;174.38;;
1140;SDS011;559;48.628;8.924;2023-05-07T05:41:19;186.23;;;177.73;;
1140;SDS011;559;48.628;8.924;2023-05-07T05:43:46;194.73;;;185.93;;
1140;SDS011;559;48.628;8.924;2023-05-07T05:46:13;188.30;;;179.43;;
1140;SDS011;559;48.628;8.924;2023-05-07T05:48:39;189.05;;;179.60;;
1140;SDS011;559;48.628;8.924;2023-05-07T05:51:06;185.05;;;176.13;;
1140;SDS011;559;48.628;8.924;2023-05-07T05:53:32;192.57;;;183.20;;
1140;SDS011;559;48.628;8.924;2023-05-07T05:55:59;195.07;;;185.38;;
1140;SDS011;559;48.628;8.924;2023-05-07T05:58:27;194.50;;;184.90;;
1140;SDS011;559;48.628;8.924;2023-05-07T06:00:53;195.45;;;186.05;;
1140;SDS011;559;48.628;8.924;2023-05-07T06:03:20;187.27;;;178.18;;
1140;SDS011;559;48.628;8.924;2023-05-07T06:05:46;181.68;;;172.57;;
1140;SDS011;559;48.628;8.924;2023-05-07T06:08:13;182.15;;;173.50;;
1140;SDS011;559;48.628;8.924;2023-05-07T06:10:39;174.10;;;165.70;;
1140;SDS011;559;48.628;8.924;2023-05-07T06:13:06;162.20;;;154.13;;
1140;SDS011;559;48.628;8.924;2023-05-07T06:15:34;165.20;;;157.30;;
1140;SDS011;559;48.628;8.924;2023-05-07T06:18:01;152.53;;;145.13;;
1140;SDS011;559;48.628;8.924;2023-05-07T06:20:27;138.33;;;131.53;;
1140;SDS011;559;48.628;8.924;2023-05-07T06:22:54;135.00;;;128.40;;
1140;SDS011;559;48.628;8.924;2023-05-07T06:25:20;127.03;;;120.83;;
1140;SDS011;559;48.628;8.924;2023-05-07T06:27:46;119.03;;;113.30;;
1140;SDS011;559;48.628;8.924;2023-05-07T06:30:13;120.43;;;114.83;;
1140;SDS011;559;48.628;8.924;2023-05-07T06:32:41;120.70;;;115.10;;
1140;SDS011;559;48.628;8.924;2023-05-07T06:35:08;114.50;;;109.50;;
1140;SDS011;559;48.628;8.924;2023-05-07T06:37:34;113.80;;;108.70;;
1140;SDS011;559;48.628;8.924;2023-05-07T06:40:03;111.30;;;106.20;;
1140;SDS011;559;48.628;8.924;2023-05-07T06:42:31;107.63;;;102.93;;
1140;SDS011;559;48.628;8.924;2023-05-07T06:44:57;103.13;;;98.23;;
1140;SDS011;559;48.628;8.924;2023-05-07T06:47:24;102.27;;;97.90;;
1140;SDS011;559;48.628;8.924;2023-05-07T06:49:51;104.33;;;99.73;;
1140;SDS011;559;48.628;8.924;2023-05-07T06:52:18;105.40;;;100.80;;
1140;SDS011;559;48.628;8.924;2023-05-07T06:54:44;106.17;;;101.77;;
1140;SDS011;559;48.628;8.924;2023-05-07T06:57:11;102.33;;;97.83;;
1140;SDS011;559;48.628;8.924;2023-05-07T06:59:37;105.17;;;100.47;;
1140;SDS011;559;48.628;8.924;2023-05-07T07:02:04;97.87;;;93.73;;
1140;SDS011;559;48.628;8.924;2023-05-07T07:04:31;103.30;;;99.10;;
1140;SDS011;559;48.628;8.924;2023-05-07T07:09:46;98.30;;;94.10;;
1140;SDS011;559;48.628;8.924;2023-05-07T07:12:12;96.90;;;92.77;;
1140;SDS011;559;48.628;8.924;2023-05-07T07:14:39;97.33;;;93.23;;
1140;SDS011;559;48.628;8.924;2023-05-07T07:17:05;92.23;;;88.30;;
1140;SDS011;559;48.628;8.924;2023-05-07T07:19:32;87.20;;;83.70;;
1140;SDS011;559;48.628;8.924;2023-05-07T07:21:58;84.80;;;81.13;;
1140;SDS011;559;48.628;8.924;2023-05-07T07:24:26;86.17;;;82.77;;
1140;SDS011;559;48.628;8.924;2023-05-07T07:26:53;81.93;;;78.70;;
1140;SDS011;559;48.628;8.924;2023-05-07T07:29:20;85.00;;;81.60;;
1140;SDS011;559;48.628;8.924;2023-05-07T07:31:47;86.27;;;82.77;;
1140;SDS011;559;48.628;8.924;2023-05-07T07:34:18;79.17;;;75.97;;
1140;SDS011;559;48.628;8.924;2023-05-07T07:36:45;76.63;;;73.63;;
1140;SDS011;559;48.628;8.924;2023-05-07T07:39:11;73.97;;;71.17;;
1140;SDS011;559;48.628;8.924;2023-05-07T07:41:39;75.00;;;71.50;;
1140;SDS011;559;48.628;8.924;2023-05-07T07:44:05;70.70;;;67.97;;
1140;SDS011;559;48.628;8.924;2023-05-07T07:46:33;75.20;;;72.40;;
1140;SDS011;559;48.628;8.924;2023-05-07T07:49:00;68.57;;;65.77;;
1140;SDS011;559;48.628;8.924;2023-05-07T07:51:26;67.13;;;64.43;;
1140;SDS011;559;48.628;8.924;2023-05-07T07:53:53;63.20;;;61.00;;
1140;SDS011;559;48.628;8.924;2023-05-07T07:56:19;60.90;;;58.63;;
1140;SDS011;559;48.628;8.924;2023-05-07T07:58:48;59.47;;;57.33;;
1140;SDS011;559;48.628;8.924;2023-05-07T08:01:15;67.43;;;64.93;;
1140;SDS011;559;48.628;8.924;2023-05-07T08:03:42;72.00;;;69.37;;
1140;SDS011;559;48.628;8.924;2023-05-07T08:06:08;68.10;;;65.60;;
1140;SDS011;559;48.628;8.924;2023-05-07T08:08:35;70.77;;;68.17;;
1140;SDS011;559;48.628;8.924;2023-05-07T08:11:02;74.30;;;71.90;;
1140;SDS011;559;48.628;8.924;2023-05-07T08:13:28;72.10;;;69.80;;
1140;SDS011;559;48.628;8.924;2023-05-07T08:15:56;76.83;;;74.33;;
1140;SDS011;559;48.628;8.924;2023-05-07T08:18:23;74.67;;;72.17;;
1140;SDS011;559;48.628;8.924;2023-05-07T08:20:50;81.43;;;78.83;;
1140;SDS011;559;48.628;8.924;2023-05-07T08:23:16;79.97;;;77.53;;
1140;SDS011;559;48.628;8.924;2023-05-07T08:25:43;71.50;;;69.20;;
1140;SDS011;559;48.628;8.924;2023-05-07T08:28:10;70.23;;;68.13;;
1140;SDS011;559;48.628;8.924;2023-05-07T08:30:36;64.30;;;62.40;;
1140;SDS011;559;48.628;8.924;2023-05-07T08:33:04;70.70;;;68.60;;
1140;SDS011;559;48.628;8.924;2023-05-07T08:35:31;79.73;;;77.00;;
1140;SDS011;559;48.628;8.924;2023-05-07T08:37:58;74.27;;;71.97;;
1140;SDS011;559;48.628;8.924;2023-05-07T08:40:25;78.60;;;76.23;;
1140;SDS011;559;48.628;8.924;2023-05-07T08:42:52;81.17;;;78.77;;
1140;SDS011;559;48.628;8.924;2023-05-07T08:45:19;85.33;;;82.93;;
1140;SDS011;559;48.628;8.924;2023-05-07T08:47:47;75.03;;;72.83;;
1140;SDS011;559;48.628;8.924;2023-05-07T08:50:18;71.67;;;69.63;;
1140;SDS011;559;48.628;8.924;2023-05-07T08:52:45;69.43;;;67.50;;
1140;SDS011;559;48.628;8.924;2023-05-07T08:55:11;75.10;;;72.90;;
1140;SDS011;559;48.628;8.924;2023-05-07T08:57:39;82.00;;;79.60;;
1140;SDS011;559;48.628;8.924;2023-05-07T09:00:05;92.87;;;90.17;;
1140;SDS011;559;48.628;8.924;2023-05-07T09:02:33;92.80;;;90.17;;
1140;SDS011;559;48.628;8.924;2023-05-07T09:05:01;81.53;;;79.33;;
1140;SDS011;559;48.628;8.924;2023-05-07T09:07:30;61.50;;;59.70;;
1140;SDS011;559;48.628;8.924;2023-05-07T09:09:57;73.75;;;71.65;;
1140;SDS011;559;48.628;8.924;2023-05-07T09:12:24;69.10;;;67.10;;
1140;SDS011;559;48.628;8.924;2023-05-07T09:14:51;60.87;;;58.83;;
1140;SDS011;559;48.628;8.924;2023-05-07T09:17:17;56.17;;;54.27;;
1140;SDS011;559;48.628;8.924;2023-05-07T09:19:44;57.47;;;55.43;;
1140;SDS011;559;48.628;8.924;2023-05-07T09:22:11;64.47;;;62.73;;
1140;SDS011;559;48.628;8.924;2023-05-07T09:24:39;60.47;;;58.67;;
1140;SDS011;559;48.628;8.924;2023-05-07T09:27:06;61.60;;;59.90;;
1140;SDS011;559;48.628;8.924;2023-05-07T09:29:35;43.00;;;41.53;;
1140;SDS011;559;48.628;8.924;2023-05-07T09:32:02;35.73;;;34.63;;
1140;SDS011;559;48.628;8.924;2023-05-07T09:34:30;47.30;;;46.00;;
1140;SDS011;559;48.628;8.924;2023-05-07T09:36:58;57.73;;;56.00;;
1140;SDS011;559;48.628;8.924;2023-05-07T09:39:25;35.03;;;33.90;;
1140;SDS011;559;48.628;8.924;2023-05-07T09:41:53;48.97;;;47.50;;
1140;SDS011;559;48.628;8.924;2023-05-07T09:44:23;51.87;;;50.37;;
1140;SDS011;559;48.628;8.924;2023-05-07T09:46:53;37.60;;;36.50;;
1140;SDS011;559;48.628;8.924;2023-05-07T09:49:21;39.90;;;38.70;;
1140;SDS011;559;48.628;8.924;2023-05-07T09:51:49;26.00;;;25.20;;
1140;SDS011;559;48.628;8.924;2023-05-07T09:54:17;25.00;;;24.00;;
1140;SDS011;559;48.628;8.924;2023-05-07T09:56:44;39.90;;;38.60;;
1140;SDS011;559;48.628;8.924;2023-05-07T09:59:17;39.13;;;37.93;;
1140;SDS011;559;48.628;8.924;2023-05-07T10:01:45;24.43;;;23.63;;
1140;SDS011;559;48.628;8.924;2023-05-07T10:04:15;24.63;;;23.83;;
1140;SDS011;559;48.628;8.924;2023-05-07T10:06:43;21.93;;;21.23;;
1140;SDS011;559;48.628;8.924;2023-05-07T10:09:10;18.50;;;17.83;;
1140;SDS011;559;48.628;8.924;2023-05-07T10:11:37;14.00;;;13.50;;
1140;SDS011;559;48.628;8.924;2023-05-07T10:14:06;10.03;;;9.63;;
1140;SDS011;559;48.628;8.924;2023-05-07T10:16:36;11.57;;;11.13;;
1140;SDS011;559;48.628;8.924;2023-05-07T10:19:03;10.53;;;9.93;;
1140;SDS011;559;48.628;8.924;2023-05-07T10:21:30;11.13;;;10.57;;
1140;SDS011;559;48.628;8.924;2023-05-07T10:23:58;11.30;;;10.80;;
1140;SDS011;559;48.628;8.924;2023-05-07T10:26:27;9.80;;;9.23;;
1140;SDS011;559;48.628;8.924;2023-05-07T10:28:54;6.30;;;5.80;;
1140;SDS011;559;48.628;8.924;2023-05-07T10:31:29;8.50;;;8.10;;
1140;SDS011;559;48.628;8.924;2023-05-07T10:34:07;7.90;;;6.73;;
1140;SDS011;559;48.628;8.924;2023-05-07T10:36:34;11.03;;;10.53;;
1140;SDS011;559;48.628;8.924;2023-05-07T10:39:01;7.77;;;7.37;;
1140;SDS011;559;48.628;8.924;2023-05-07T10:41:27;12.47;;;11.97;;
1140;SDS011;559;48.628;8.924;2023-05-07T10:43:54;11.20;;;10.30;;
1140;SDS011;559;48.628;8.924;2023-05-07T10:46:21;8.77;;;8.23;;
1140;SDS011;559;48.628;8.924;2023-05-07T10:51:36;9.70;;;9.10;;
1140;SDS011;559;48.628;8.924;2023-05-07T10:54:22;13.47;;;12.97;;
1140;SDS011;559;48.628;8.924;2023-05-07T10:56:50;14.60;;;14.10;;
1140;SDS011;559;48.628;8.924;2023-05-07T10:59:35;11.97;;;11.37;;
1140;SDS011;559;48.628;8.924;2023-05-07T11:02:06;15.40;;;14.90;;
1140;SDS011;559;48.628;8.924;2023-05-07T11:04:36;17.90;;;17.20;;
1140;SDS011;559;48.628;8.924;2023-05-07T11:07:21;16.57;;;15.70;;
1140;SDS011;559;48.628;8.924;2023-05-07T11:09:54;15.60;;;14.70;;
1140;SDS011;559;48.628;8.924;2023-05-07T11:15:14;20.07;;;19.33;;
1140;SDS011;559;48.628;8.924;2023-05-07T11:17:52;15.20;;;14.70;;
1140;SDS011;559;48.628;8.924;2023-05-07T11:20:20;20.93;;;20.23;;
1140;SDS011;559;48.628;8.924;2023-05-07T11:22:47;14.10;;;13.40;;
1140;SDS011;559;48.628;8.924;2023-05-07T11:25:17;11.77;;;11.37;;
1140;SDS011;559;48.628;8.924;2023-05-07T11:27:44;18.93;;;17.93;;
1140;SDS011;559;48.628;8.924;2023-05-07T11:30:11;23.10;;;22.40;;
1140;SDS011;559;48.628;8.924;2023-05-07T11:32:43;35.10;;;33.90;;
1140;SDS011;559;48.628;8.924;2023-05-07T11:35:13;30.13;;;28.60;;
1140;SDS011;559;48.628;8.924;2023-05-07T11:37:42;25.60;;;24.43;;
1140;SDS011;559;48.628;8.924;2023-05-07T11:40:10;22.80;;;22.10;;
1140;SDS011;559;48.628;8.924;2023-05-07T11:42:39;21.10;;;20.40;;
1140;SDS011;559;48.628;8.924;2023-05-07T11:45:06;23.83;;;23.00;;
1140;SDS011;559;48.628;8.924;2023-05-07T11:47:34;24.60;;;23.70;;
1140;SDS011;559;48.628;8.924;2023-05-07T11:50:02;22.70;;;22.00;;
1140;SDS011;559;48.628;8.924;2023-05-07T11:52:29;31.07;;;29.87;;
1140;SDS011;559;48.628;8.924;2023-05-07T11:54:59;46.87;;;45.47;;
1140;SDS011;559;48.628;8.924;2023-05-07T11:57:27;94.90;;;92.10;;
1140;SDS011;559;48.628;8.924;2023-05-07T11:59:53;102.30;;;99.23;;
1140;SDS011;559;48.628;8.924;2023-05-07T12:02:20;140.00;;;135.17;;
1140;SDS011;559;48.628;8.924;2023-05-07T12:04:47;147.07;;;141.67;;
1140;SDS011;559;48.628;8.924;2023-05-07T12:07:14;150.90;;;144.93;;
1140;SDS011;559;48.628;8.924;2023-05-07T12:09:41;152.83;;;147.03;;
1140;SDS011;559;48.628;8.924;2023-05-07T12:12:09;150.43;;;145.23;;
1140;SDS011;559;48.628;8.924;2023-05-07T12:14:37;151.70;;;146.80;;
1140;SDS011;559;48.628;8.924;2023-05-07T12:17:04;138.60;;;134.30;;
1140;SDS011;559;48.628;8.924;2023-05-07T12:19:30;126.30;;;122.70;;
1140;SDS011;559;48.628;8.924;2023-05-07T12:21:57;131.50;;;127.57;;
1140;SDS011;559;48.628;8.924;2023-05-07T12:24:23;141.50;;;136.90;;
1140;SDS011;559;48.628;8.924;2023-05-07T12:26:50;155.77;;;150.50;;
1140;SDS011;559;48.628;8.924;2023-05-07T12:29:18;149.90;;;144.37;;
1140;SDS011;559;48.628;8.924;2023-05-07T12:31:47;156.73;;;150.80;;
1140;SDS011;559;48.628;8.924;2023-05-07T12:34:14;159.30;;;153.00;;
1140;SDS011;559;48.628;8.924;2023-05-07T12:36:40;156.07;;;150.07;;
1140;SDS011;559;48.628;8.924;2023-05-07T12:39:07;160.07;;;152.40;;
1140;SDS011;559;48.628;8.924;2023-05-07T12:41:51;164.40;;;157.20;;
1140;SDS011;559;48.628;8.924;2023-05-07T12:44:22;172.83;;;164.57;;
1140;SDS011;559;48.628;8.924;2023-05-07T12:46:49;168.67;;;160.57;;
1140;SDS011;559;48.628;8.924;2023-05-07T12:49:16;147.23;;;141.33;;
1140;SDS011;559;48.628;8.924;2023-05-07T12:51:43;148.07;;;142.27;;
1140;SDS011;559;48.628;8.924;2023-05-07T12:54:10;147.00;;;141.10;;
1140;SDS011;559;48.628;8.924;2023-05-07T12:56:36;148.27;;;142.27;;
1140;SDS011;559;48.628;8.924;2023-05-07T12:59:03;144.17;;;138.37;;
1140;SDS011;559;48.628;8.924;2023-05-07T13:01:31;153.10;;;147.10;;
1140;SDS011;559;48.628;8.924;2023-05-07T13:04:00;159.60;;;153.03;;
1140;SDS011;559;48.628;8.924;2023-05-07T13:06:27;152.10;;;145.60;;
1140;SDS011;559;48.628;8.924;2023-05-07T13:08:53;151.20;;;145.17;;
1140;SDS011;559;48.628;8.924;2023-05-07T13:11:20;150.40;;;144.20;;
1140;SDS011;559;48.628;8.924;2023-05-07T13:13:46;151.80;;;145.40;;
1140;SDS011;559;48.628;8.924;2023-05-07T13:16:13;143.93;;;137.33;;
1140;SDS011;559;48.628;8.924;2023-05-07T13:18:41;157.30;;;150.10;;
1140;SDS011;559;48.628;8.924;2023-05-07T13:21:08;159.60;;;151.90;;
1140;SDS011;559;48.628;8.924;2023-05-07T13:23:35;174.80;;;166.47;;
1140;SDS011;559;48.628;8.924;2023-05-07T13:26:03;186.13;;;177.37;;
1140;SDS011;559;48.628;8.924;2023-05-07T13:28:30;178.43;;;169.23;;
1140;SDS011;559;48.628;8.924;2023-05-07T13:30:56;173.03;;;163.90;;
1140;SDS011;559;48.628;8.924;2023-05-07T13:33:23;186.97;;;177.37;;
1140;SDS011;559;48.628;8.924;2023-05-07T13:35:51;194.20;;;184.77;;
1140;SDS011;559;48.628;8.924;2023-05-07T13:38:17;190.83;;;181.10;;
1140;SDS011;559;48.628;8.924;2023-05-07T13:40:44;196.47;;;186.50;;
1140;SDS011;559;48.628;8.924;2023-05-07T13:43:10;198.90;;;188.90;;
1140;SDS011;559;48.628;8.924;2023-05-07T13:45:37;193.50;;;183.73;;
1140;SDS011;559;48.628;8.924;2023-05-07T13:48:03;196.63;;;186.83;;
1140;SDS011;559;48.628;8.924;2023-05-07T13:50:30;189.30;;;179.27;;
1140;SDS011;559;48.628;8.924;2023-05-07T13:52:58;203.40;;;193.50;;
1140;SDS011;559;48.628;8.924;2023-05-07T13:55:24;200.53;;;190.53;;
1140;SDS011;559;48.628;8.924;2023-05-07T13:57:54;208.37;;;198.27;;
1140;SDS011;559;48.628;8.924;2023-05-07T14:00:22;202.53;;;192.63;;
1140;SDS011;559;48.628;8.924;2023-05-07T14:02:49;194.77;;;185.27;;
1140;SDS011;559;48.628;8.924;2023-05-07T14:05:15;198.00;;;188.40;;
1140;SDS011;559;48.628;8.924;2023-05-07T14:07:42;193.00;;;183.40;;
1140;SDS011;559;48.628;8.924;2023-05-07T14:10:10;201.83;;;191.73;;
1140;SDS011;559;48.628;8.924;2023-05-07T14:12:38;206.90;;;196.87;;
1140;SDS011;559;48.628;8.924;2023-05-07T14:15:05;205.07;;;194.57;;
1140;SDS011;559;48.628;8.924;2023-05-07T14:17:32;204.67;;;194.57;;
1140;SDS011;559;48.628;8.924;2023-05-07T14:19:59;211.50;;;201.20;;
1140;SDS011;559;48.628;8.924;2023-05-07T14:22:26;200.73;;;190.53;;
1140;SDS011;559;48.628;8.924;2023-05-07T14:24:52;220.77;;;210.03;;
1140;SDS011;559;48.628;8.924;2023-05-07T14:27:20;227.40;;;216.50;;
1140;SDS011;559;48.628;8.924;2023-05-07T14:29:47;225.90;;;214.40;;
1140;SDS011;559;48.628;8.924;2023-05-07T14:32:16;226.07;;;214.87;;
1140;SDS011;559;48.628;8.924;2023-05-07T14:34:42;222.03;;;211.03;;
1140;SDS011;559;48.628;8.924;2023-05-07T14:37:09;229.13;;;217.63;;
1140;SDS011;559;48.628;8.924;2023-05-07T14:39:35;232.40;;;220.90;;
1140;SDS011;559;48.628;8.924;2023-05-07T14:42:02;223.83;;;212.73;;
1140;SDS011;559;48.628;8.924;2023-05-07T14:44:30;228.13;;;216.67;;
1140;SDS011;559;48.628;8.924;2023-05-07T14:46:57;228.37;;;216.60;;
1140;SDS011;559;48.628;8.924;2023-05-07T14:49:24;233.10;;;221.20;;
1140;SDS011;559;48.628;8.924;2023-05-07T14:51:50;234.37;;;222.77;;